Time;durP1;ratioP1;P1;durP2;ratioP2;P2;SDS_P1;SDS_P2;PMS_P1;PMS_P2;Temp;Humidity;BMP_temperature;BMP_pressure;BME280_temperature;BME280_humidity;BME280_pressure;Samples;Min_cycle;Max_cycle;Signal;HPM_P1;HPM_P2
2021/06/05 00:01:24;;;;;;;2.57;1.03;;;;;;;25.06;75.63;98437.28;5084821;28;20197;-77
2021/06/05 00:03:52;;;;;;;2.33;1.20;;;;;;;24.95;76.11;98435.72;5091382;28;20234;-77
2021/06/05 00:06:21;;;;;;;3.03;1.10;;;;;;;24.50;77.17;98432.34;5089677;28;20205;-78
2021/06/05 00:08:48;;;;;;;1.57;1.40;;;;;;;25.01;80.49;98420.09;5085035;28;20675;-77
2021/06/05 00:11:17;;;;;;;1.40;1.27;;;;;;;25.01;85.53;98422.81;5091456;28;20733;-77
2021/06/05 00:13:46;;;;;;;2.70;1.30;;;;;;;24.88;81.50;98426.19;5091611;28;20686;-77
2021/06/05 00:16:16;;;;;;;3.13;1.33;;;;;;;24.91;79.24;98431.06;5091245;28;20235;-78
2021/06/05 00:18:45;;;;;;;1.83;1.30;;;;;;;25.12;79.89;98413.44;5091789;28;20624;-77
2021/06/05 00:21:13;;;;;;;1.43;1.20;;;;;;;25.27;78.42;98418.84;5085026;28;20668;-77
2021/06/05 00:23:40;;;;;;;1.83;1.30;;;;;;;25.21;80.65;98423.50;5088881;28;20291;-77
2021/06/05 00:26:07;;;;;;;1.87;1.37;;;;;;;24.79;84.56;98406.03;5091461;28;20211;-76
2021/06/05 00:28:34;;;;;;;3.40;1.13;;;;;;;25.12;84.02;98413.44;5089464;28;20637;-76
2021/06/05 00:31:01;;;;;;;2.80;1.30;;;;;;;25.22;83.60;98405.19;5080428;28;20201;-76
2021/06/05 00:33:28;;;;;;;2.33;1.43;;;;;;;25.38;82.63;98406.75;5089942;28;20299;-76
2021/06/05 00:35:57;;;;;;;3.20;1.43;;;;;;;24.85;86.88;98407.63;5084919;28;20422;-76
2021/06/05 00:38:24;;;;;;;3.77;1.60;;;;;;;24.70;88.85;98400.38;5087722;28;20295;-76
2021/06/05 00:40:53;;;;;;;4.47;1.50;;;;;;;24.75;90.49;98396.78;5088594;28;20228;-76
2021/06/05 00:43:21;;;;;;;3.93;1.30;;;;;;;24.70;86.33;98411.28;5091678;28;20211;-77
2021/06/05 00:45:49;;;;;;;3.30;1.30;;;;;;;24.24;87.76;98411.72;5091144;28;20752;-76
2021/06/05 00:48:17;;;;;;;4.97;1.30;;;;;;;23.94;87.41;98414.53;5084913;28;20215;-77
2021/06/05 00:50:45;;;;;;;3.83;1.50;;;;;;;23.34;92.30;98414.59;5087347;28;20683;-77
2021/06/05 00:53:13;;;;;;;1.30;1.00;;;;;;;23.19;93.38;98415.41;5097041;22;20235;-72
2021/06/05 00:55:43;;;;;;;3.17;0.90;;;;;;;23.47;91.75;98403.94;5084817;28;20334;-73
2021/06/05 00:58:10;;;;;;;3.03;1.40;;;;;;;23.51;92.09;98404.25;5092177;28;20202;-72
2021/06/05 01:00:40;;;;;;;3.40;1.10;;;;;;;22.86;97.10;98404.19;5093624;28;20250;-71
2021/06/05 01:03:08;;;;;;;4.37;1.30;;;;;;;23.20;93.75;98386.28;5086422;28;20699;-73
2021/06/05 01:05:36;;;;;;;3.00;1.23;;;;;;;23.20;92.72;98402.63;5094422;28;20215;-72
2021/06/05 01:08:09;;;;;;;6.37;1.50;;;;;;;23.25;93.38;98402.63;5091956;28;20216;-72
2021/06/05 01:10:38;;;;;;;2.03;1.20;;;;;;;23.09;93.69;98400.91;5092735;28;20671;-72
2021/06/05 01:13:08;;;;;;;1.80;1.20;;;;;;;23.03;93.87;98404.72;5092239;28;20701;-72
2021/06/05 01:15:39;;;;;;;1.43;1.20;;;;;;;22.90;97.11;98394.38;5093156;28;20563;-72
2021/06/05 01:18:09;;;;;;;2.90;1.30;;;;;;;23.03;94.15;98383.78;5094335;28;20205;-72
2021/06/05 01:20:44;;;;;;;2.37;1.00;;;;;;;22.78;95.02;98385.63;5093208;28;20229;-73
2021/06/05 01:23:23;;;;;;;1.20;1.10;;;;;;;22.85;94.16;98387.00;5092592;28;20232;-72
2021/06/05 01:26:19;;;;;;;1.37;0.97;;;;;;;22.83;94.30;98382.94;5093970;28;20213;-72
2021/06/05 01:28:54;;;;;;;2.60;1.23;;;;;;;22.93;92.65;98383.78;5089429;28;20197;-73
2021/06/05 01:31:24;;;;;;;2.93;1.20;;;;;;;22.66;94.89;98377.75;5093845;28;20206;-71
2021/06/05 01:33:51;;;;;;;6.33;1.03;;;;;;;22.88;92.77;98378.31;5092634;28;20314;-71
2021/06/05 01:36:19;;;;;;;1.90;1.10;;;;;;;22.86;93.04;98361.41;5093985;28;20273;-72
2021/06/05 01:38:48;;;;;;;1.93;0.87;;;;;;;23.01;91.23;98364.16;5092442;28;20201;-73
2021/06/05 01:41:17;;;;;;;3.60;1.33;;;;;;;22.95;90.52;98367.16;5091689;28;20560;-72
2021/06/05 01:43:45;;;;;;;2.20;1.20;;;;;;;23.24;89.02;98358.22;5091983;28;20321;-72
2021/06/05 01:46:13;;;;;;;2.53;0.97;;;;;;;23.15;87.46;98367.19;5090540;28;20213;-71
2021/06/05 01:48:40;;;;;;;1.30;1.10;;;;;;;23.16;86.59;98363.38;5092824;28;20225;-71
2021/06/05 01:51:11;;;;;;;2.10;0.87;;;;;;;23.01;85.19;98360.63;5092829;28;20202;-73
2021/06/05 01:53:41;;;;;;;1.50;0.87;;;;;;;23.18;83.03;98364.75;5092705;28;20238;-73
2021/06/05 01:56:14;;;;;;;2.47;0.90;;;;;;;23.31;82.52;98366.13;5093042;28;20263;-73
2021/06/05 01:58:43;;;;;;;2.40;0.90;;;;;;;23.44;83.58;98371.00;5090081;28;20202;-72
2021/06/05 02:01:11;;;;;;;1.70;0.80;;;;;;;23.67;80.10;98378.59;5093438;28;20206;-72
2021/06/05 02:03:38;;;;;;;1.00;0.80;;;;;;;23.32;83.17;98367.75;5092236;28;20718;-72
2021/06/05 02:06:05;;;;;;;3.37;1.00;;;;;;;23.33;82.35;98356.56;5091951;28;20259;-72
2021/06/05 02:08:33;;;;;;;1.37;0.80;;;;;;;23.16;84.57;98363.38;5088111;28;20212;-72
2021/06/05 02:11:04;;;;;;;1.43;0.80;;;;;;;23.14;85.39;98358.19;5093044;28;20200;-73
2021/06/05 02:13:36;;;;;;;1.07;0.97;;;;;;;22.71;88.56;98347.78;5092913;28;20286;-72
2021/06/05 02:16:10;;;;;;;0.87;0.70;;;;;;;23.12;87.21;98354.09;5093317;28;20656;-72
2021/06/05 02:18:41;;;;;;;2.17;0.70;;;;;;;23.27;85.91;98354.97;5092400;28;20214;-72
2021/06/05 02:21:10;;;;;;;1.23;1.00;;;;;;;23.07;87.45;98348.66;5092999;28;20198;-71
2021/06/05 02:23:42;;;;;;;1.90;1.00;;;;;;;23.24;86.53;98350.03;5091447;28;20348;-72
2021/06/05 02:26:09;;;;;;;1.33;0.90;;;;;;;22.92;87.45;98348.66;5092408;28;20206;-73
2021/06/05 02:28:37;;;;;;;1.83;1.00;;;;;;;23.05;87.48;98351.63;5092345;28;20205;-72
2021/06/05 02:31:07;;;;;;;2.30;1.00;;;;;;;23.20;86.36;98348.94;5092661;28;20224;-73
2021/06/05 02:33:36;;;;;;;1.83;0.90;;;;;;;23.14;86.36;98346.47;5091742;28;20303;-72
2021/06/05 02:36:05;;;;;;;1.53;1.10;;;;;;;22.87;88.00;98351.38;5091471;28;20206;-71
2021/06/05 02:38:32;;;;;;;1.43;0.90;;;;;;;22.88;88.54;98342.94;5091997;28;20236;-72
2021/06/05 02:40:59;;;;;;;2.83;1.20;;;;;;;23.00;88.12;98339.94;5092380;28;20228;-72
2021/06/05 02:43:33;;;;;;;1.20;0.77;;;;;;;23.11;86.93;98341.56;5092599;28;20223;-72
2021/06/05 02:46:04;;;;;;;1.63;1.00;;;;;;;23.30;85.10;98342.69;5091885;28;20205;-72
2021/06/05 02:48:42;;;;;;;3.30;1.00;;;;;;;23.22;84.79;98337.78;5087436;28;20669;-72
2021/06/05 02:51:09;;;;;;;1.10;0.90;;;;;;;23.09;86.13;98338.28;5088881;28;20210;-72
2021/06/05 02:53:35;;;;;;;2.27;1.07;;;;;;;23.34;84.45;98341.03;5090953;28;20229;-73
2021/06/05 02:56:03;;;;;;;1.50;0.93;;;;;;;23.45;84.46;98345.38;5092123;28;20213;-73
2021/06/05 02:58:30;;;;;;;4.27;1.20;;;;;;;23.03;86.04;98331.22;5092362;28;20607;-73
2021/06/05 03:00:57;;;;;;;1.93;0.87;;;;;;;23.08;86.45;98336.66;5083978;28;20257;-72
2021/06/05 03:03:24;;;;;;;1.63;1.10;;;;;;;23.43;84.24;98345.66;5086690;28;20229;-73
2021/06/05 03:05:53;;;;;;;1.87;1.07;;;;;;;23.78;82.12;98342.03;5090972;28;20663;-72
2021/06/05 03:08:22;;;;;;;2.93;1.00;;;;;;;23.95;80.55;98339.81;5092383;28;20212;-72
2021/06/05 03:10:49;;;;;;;2.70;1.00;;;;;;;24.08;78.71;98347.44;5091547;28;20240;-72
2021/06/05 03:13:18;;;;;;;1.00;0.83;;;;;;;23.85;78.14;98353.47;5091563;28;20234;-72
2021/06/05 03:15:45;;;;;;;1.50;1.17;;;;;;;23.66;80.19;98339.63;5087604;28;20262;-72
2021/06/05 03:18:13;;;;;;;3.17;1.10;;;;;;;23.84;77.81;98344.47;5092262;28;20302;-73
2021/06/05 03:20:42;;;;;;;1.37;0.90;;;;;;;23.92;77.21;98346.66;5090347;28;20223;-73
2021/06/05 03:23:12;;;;;;;2.03;0.90;;;;;;;24.38;74.92;98353.53;5091354;28;20223;-73
2021/06/05 03:25:39;;;;;;;1.67;1.10;;;;;;;24.13;75.80;98359.16;5089886;28;20298;-72
2021/06/05 03:28:07;;;;;;;1.53;1.00;;;;;;;24.10;78.60;98351.50;5091835;28;20207;-72
2021/06/05 03:30:35;;;;;;;1.40;0.90;;;;;;;23.68;80.07;98355.69;5090220;28;20201;-72
2021/06/05 03:33:02;;;;;;;2.63;0.80;;;;;;;23.90;80.48;98354.31;5090857;28;20305;-72
2021/06/05 03:35:29;;;;;;;2.10;1.00;;;;;;;23.61;82.07;98350.53;5090056;28;20573;-73
2021/06/05 03:37:55;;;;;;;4.20;1.03;;;;;;;23.37;84.68;98354.13;5091429;28;20203;-72
2021/06/05 03:40:27;;;;;;;2.73;1.17;;;;;;;23.50;82.86;98353.53;5088729;28;20224;-72
2021/06/05 03:42:54;;;;;;;1.83;1.33;;;;;;;24.05;80.64;98358.88;5087707;28;20598;-73
2021/06/05 03:45:22;;;;;;;2.43;1.03;;;;;;;24.16;83.61;98361.28;5088079;28;20249;-72
2021/06/05 03:47:49;;;;;;;1.97;1.10;;;;;;;23.50;84.07;98359.00;5091448;28;20202;-72
2021/06/05 03:50:20;;;;;;;3.17;1.10;;;;;;;24.20;80.93;98351.47;5089113;28;20204;-73
2021/06/05 03:52:48;;;;;;;2.03;1.07;;;;;;;24.14;82.61;98357.22;5089202;28;20276;-72
2021/06/05 03:55:15;;;;;;;1.90;1.33;;;;;;;24.37;81.35;98357.38;5093816;28;20227;-72
2021/06/05 03:57:43;;;;;;;2.13;0.87;;;;;;;24.28;81.31;98350.06;5091819;28;20203;-72
2021/06/05 04:00:13;;;;;;;1.60;1.10;;;;;;;23.67;87.77;98349.41;5087722;28;20816;-72
2021/06/05 04:02:40;;;;;;;3.67;1.20;;;;;;;23.91;86.52;98355.94;5088151;28;20255;-72
2021/06/05 04:05:08;;;;;;;2.50;1.10;;;;;;;23.89;86.93;98360.84;5094878;28;20226;-72
2021/06/05 04:07:35;;;;;;;1.47;1.20;;;;;;;24.12;86.77;98364.88;5095829;28;20200;-72
2021/06/05 04:10:04;;;;;;;2.37;1.40;;;;;;;24.05;86.66;98367.06;5091162;28;20199;-72
2021/06/05 04:12:31;;;;;;;2.00;1.10;;;;;;;23.69;91.99;98360.06;5090087;28;20238;-72
2021/06/05 04:14:59;;;;;;;2.93;1.23;;;;;;;23.81;88.71;98372.28;5088890;28;20634;-72
2021/06/05 04:17:26;;;;;;;2.97;1.37;;;;;;;23.79;89.15;98369.03;5089442;28;20206;-72
2021/06/05 04:19:53;;;;;;;3.00;1.40;;;;;;;23.75;90.26;98367.13;5090363;28;20239;-72
2021/06/05 04:22:20;;;;;;;4.37;1.40;;;;;;;23.90;93.32;98364.38;5088768;28;20229;-72
2021/06/05 04:24:47;;;;;;;1.47;1.07;;;;;;;24.05;90.41;98370.63;5090100;28;20199;-72
2021/06/05 04:27:14;;;;;;;2.57;1.50;;;;;;;24.04;89.75;98360.81;5090999;28;20207;-72
2021/06/05 04:29:40;;;;;;;7.63;1.90;;;;;;;23.92;92.26;98365.75;5089956;28;20199;-72
2021/06/05 04:32:09;;;;;;;3.33;1.40;;;;;;;24.30;88.44;98356.88;5087265;28;20313;-72
2021/06/05 04:34:36;;;;;;;1.90;1.00;;;;;;;24.38;88.97;98360.94;5094376;28;20547;-72
2021/06/05 04:37:04;;;;;;;1.20;1.07;;;;;;;24.05;91.52;98362.44;5095137;28;20570;-72
2021/06/05 04:39:30;;;;;;;2.33;1.00;;;;;;;24.05;91.63;98358.88;5094666;28;20227;-72
2021/06/05 04:41:58;;;;;;;1.10;1.00;;;;;;;24.08;91.90;98361.88;5091247;28;20223;-72
2021/06/05 04:44:25;;;;;;;1.47;1.17;;;;;;;24.12;92.44;98365.66;5093132;28;20293;-72
2021/06/05 04:46:52;;;;;;;2.33;1.10;;;;;;;24.16;91.16;98360.47;5094498;28;20632;-72
2021/06/05 04:49:20;;;;;;;4.80;1.17;;;;;;;24.71;87.14;98362.94;5094466;28;20214;-72
2021/06/05 04:51:47;;;;;;;2.07;1.40;;;;;;;24.63;86.47;98358.09;5094830;28;20233;-72
2021/06/05 04:54:14;;;;;;;3.37;1.20;;;;;;;24.64;86.93;98357.00;5093407;28;20222;-72
2021/06/05 04:56:43;;;;;;;4.10;1.10;;;;;;;24.17;90.01;98359.41;5094658;28;20316;-72
2021/06/05 04:59:11;;;;;;;1.13;1.03;;;;;;;24.06;90.92;98358.59;5092953;28;20200;-72
2021/06/05 05:01:38;;;;;;;2.77;1.40;;;;;;;23.98;91.66;98359.19;5094043;28;20738;-72
2021/06/05 05:04:06;;;;;;;3.93;1.10;;;;;;;23.92;91.59;98365.75;5093465;28;20669;-72
2021/06/05 05:06:35;;;;;;;3.47;1.10;;;;;;;23.94;91.33;98366.28;5097819;28;20207;-72
2021/06/05 05:09:03;;;;;;;1.20;1.10;;;;;;;23.92;89.69;98371.19;5093769;28;20207;-72
2021/06/05 05:11:30;;;;;;;1.80;1.07;;;;;;;23.78;90.35;98372.84;5094065;28;20214;-73
2021/06/05 05:13:57;;;;;;;2.83;1.43;;;;;;;24.04;88.95;98368.16;5093270;28;20687;-72
2021/06/05 05:16:24;;;;;;;2.07;1.20;;;;;;;24.22;88.40;98370.28;5093780;28;20625;-72
2021/06/05 05:18:53;;;;;;;1.87;1.37;;;;;;;24.05;89.21;98376.06;5093717;28;20205;-71
2021/06/05 05:21:21;;;;;;;1.70;1.30;;;;;;;24.28;89.19;98375.41;5092660;28;20223;-72
2021/06/05 05:23:50;;;;;;;1.90;1.20;;;;;;;24.52;88.12;98378.31;5093668;28;20250;-72
2021/06/05 05:26:18;;;;;;;4.80;1.40;;;;;;;23.99;91.87;98377.19;5090108;28;20307;-72
2021/06/05 05:28:45;;;;;;;2.83;1.20;;;;;;;24.65;88.87;98377.72;5092450;28;20208;-72
2021/06/05 05:31:14;;;;;;;3.57;1.30;;;;;;;24.98;86.15;98379.72;5094190;28;20201;-72
2021/06/05 05:33:42;;;;;;;1.37;0.93;;;;;;;25.17;84.07;98384.19;5090893;28;20237;-72
2021/06/05 05:36:11;;;;;;;1.70;1.10;;;;;;;24.86;83.15;98384.69;5092692;28;20201;-72
2021/06/05 05:38:38;;;;;;;1.90;1.00;;;;;;;25.36;80.35;98389.81;5092723;28;20588;-72
2021/06/05 05:41:08;;;;;;;3.57;1.20;;;;;;;25.19;78.56;98392.09;5092613;28;20224;-72
2021/06/05 05:43:35;;;;;;;3.30;1.30;;;;;;;24.71;77.98;98396.53;5092656;28;20319;-72
2021/06/05 05:46:04;;;;;;;3.83;1.07;;;;;;;24.70;82.63;98388.63;5092632;28;20222;-72
2021/06/05 05:48:31;;;;;;;2.33;1.20;;;;;;;25.32;77.83;98397.75;5092463;28;20263;-72
2021/06/05 05:50:58;;;;;;;2.60;1.00;;;;;;;25.48;76.13;98395.72;5092873;28;20619;-72
2021/06/05 05:53:25;;;;;;;1.53;0.80;;;;;;;26.00;72.87;98406.72;5092579;28;20237;-72
2021/06/05 05:55:52;;;;;;;1.23;0.90;;;;;;;25.83;72.21;98398.09;5091136;28;20196;-74
2021/06/05 05:58:23;;;;;;;1.00;0.90;;;;;;;25.45;75.01;98396.28;5092973;28;20579;-72
2021/06/05 06:00:51;;;;;;;1.37;0.80;;;;;;;26.37;68.62;98415.03;5091510;28;20311;-71
2021/06/05 06:03:19;;;;;;;4.10;1.30;;;;;;;24.52;81.80;98394.72;5093406;28;20220;-72
2021/06/05 06:05:46;;;;;;;1.33;0.90;;;;;;;24.49;80.38;98398.81;5089533;28;20213;-72
2021/06/05 06:08:15;;;;;;;1.20;1.00;;;;;;;26.14;71.61;98410.41;5085403;28;20205;-72
2021/06/05 06:10:42;;;;;;;1.83;1.17;;;;;;;24.77;80.41;98395.41;5089409;28;20199;-73
2021/06/05 06:13:10;;;;;;;3.20;0.90;;;;;;;25.16;77.28;98404.41;5091470;28;20601;-72
2021/06/05 06:15:38;;;;;;;3.13;1.00;;;;;;;25.18;80.83;98395.94;5092895;28;20201;-72
2021/06/05 06:18:06;;;;;;;2.90;1.20;;;;;;;26.17;73.80;98412.53;5087252;28;20570;-74
2021/06/05 06:20:34;;;;;;;1.47;1.00;;;;;;;24.69;80.70;98403.38;5085330;28;20217;-72
2021/06/05 06:23:01;;;;;;;1.03;0.93;;;;;;;25.55;75.87;98407.97;5092815;28;20239;-81
2021/06/05 06:25:32;;;;;;;1.47;0.93;;;;;;;26.08;76.69;98406.06;5088229;28;20258;-81
2021/06/05 06:27:59;;;;;;;3.07;1.27;;;;;;;25.23;79.00;98409.56;5090827;28;20271;-74
2021/06/05 06:30:29;;;;;;;2.87;1.20;;;;;;;25.78;80.05;98407.19;5090683;28;20223;-76
2021/06/05 06:32:57;;;;;;;2.27;1.20;;;;;;;26.30;73.48;98414.59;5084826;28;20225;-76
2021/06/05 06:35:25;;;;;;;2.30;1.07;;;;;;;26.99;68.33;98425.72;5087956;28;20209;-75
2021/06/05 06:37:53;;;;;;;1.10;1.00;;;;;;;26.42;69.71;98431.41;5090704;28;20214;-72
2021/06/05 06:40:22;;;;;;;2.27;1.10;;;;;;;26.78;72.21;98424.38;5094393;28;20698;-71
2021/06/05 06:42:49;;;;;;;2.80;1.23;;;;;;;26.63;72.87;98413.63;5090735;28;20448;-73
2021/06/05 06:45:15;;;;;;;3.43;1.07;;;;;;;26.67;71.67;98421.00;5092726;28;20220;-71
2021/06/05 06:47:42;;;;;;;1.50;0.90;;;;;;;27.17;68.31;98424.91;5087995;28;20231;-72
2021/06/05 06:50:13;;;;;;;1.67;0.83;;;;;;;27.39;67.87;98422.41;5091571;28;20194;-73
2021/06/05 06:52:40;;;;;;;1.67;1.00;;;;;;;27.81;65.69;98435.97;5090904;28;20291;-73
2021/06/05 06:55:08;;;;;;;3.43;0.77;;;;;;;28.31;61.04;98446.00;5101493;22;20319;-75
2021/06/05 06:57:35;;;;;;;0.83;0.80;;;;;;;28.07;61.99;98434.41;5073378;28;20203;-74
2021/06/05 07:00:03;;;;;;;1.73;0.90;;;;;;;27.59;65.81;98430.28;5067274;28;20238;-78
2021/06/05 07:02:30;;;;;;;4.70;1.00;;;;;;;28.03;63.04;98441.63;5071117;28;20266;-78
2021/06/05 07:04:56;;;;;;;1.63;1.00;;;;;;;28.13;63.27;98441.44;5061437;28;20229;-78
2021/06/05 07:07:25;;;;;;;3.20;1.10;;;;;;;28.56;60.57;98451.84;5065377;28;20285;-77
2021/06/05 07:09:51;;;;;;;1.57;1.03;;;;;;;27.91;61.67;98446.75;5062981;28;20257;-74
2021/06/05 07:12:18;;;;;;;1.33;1.10;;;;;;;28.37;59.53;98447.56;5060763;28;20209;-78
2021/06/05 07:14:45;;;;;;;2.37;0.80;;;;;;;28.11;59.00;98454.63;5063591;28;20207;-74
2021/06/05 07:17:12;;;;;;;4.00;0.70;;;;;;;28.01;60.10;98455.63;5065268;28;20676;-77
2021/06/05 07:19:38;;;;;;;1.80;1.00;;;;;;;26.78;65.68;98451.78;5064722;28;20561;-76
2021/06/05 07:22:06;;;;;;;2.30;1.07;;;;;;;26.18;68.59;98438.78;5069910;28;20699;-79
2021/06/05 07:24:34;;;;;;;2.90;1.17;;;;;;;25.62;68.02;98443.97;5064926;28;20303;-78
2021/06/05 07:27:01;;;;;;;1.10;0.90;;;;;;;27.07;62.15;98452.47;5067880;28;20200;-78
2021/06/05 07:29:27;;;;;;;2.10;0.70;;;;;;;27.66;58.77;98453.47;5069366;28;20211;-75
2021/06/05 07:31:55;;;;;;;2.73;0.90;;;;;;;26.80;61.67;98457.78;5062803;28;20198;-75
2021/06/05 07:34:27;;;;;;;1.97;1.10;;;;;;;28.67;52.97;98471.66;5066545;28;20667;-73
2021/06/05 07:36:55;;;;;;;4.30;1.20;;;;;;;28.27;59.13;98458.72;5052449;28;20204;-73
2021/06/05 07:39:26;;;;;;;1.53;1.00;;;;;;;28.07;57.30;98459.91;5062023;28;20213;-73
2021/06/05 07:41:54;;;;;;;2.50;0.97;;;;;;;28.54;55.20;98469.75;5052133;28;20197;-76
2021/06/05 07:44:22;;;;;;;3.60;0.90;;;;;;;28.17;56.90;98467.16;5056130;28;20254;-73
2021/06/05 07:46:54;;;;;;;1.35;0.85;;;;;;;27.59;57.47;98471.44;5058824;28;20251;-75
2021/06/05 07:49:22;;;;;;;2.20;1.02;;;;;;;29.40;52.09;98467.56;5069834;28;20201;-74
2021/06/05 07:51:49;;;;;;;1.30;0.98;;;;;;;29.20;51.64;98479.06;5063945;28;20216;-74
2021/06/05 07:54:16;;;;;;;4.13;1.08;;;;;;;29.14;52.78;98477.53;5066921;28;20542;-72
2021/06/05 07:56:47;;;;;;;3.10;1.08;;;;;;;29.21;54.83;98482.63;5064460;28;20704;-78
2021/06/05 07:59:16;;;;;;;1.17;0.90;;;;;;;28.75;54.58;98474.53;5073755;28;20205;-79
2021/06/05 08:01:43;;;;;;;3.65;1.20;;;;;;;28.62;56.57;98460.78;5069027;28;20229;-79
2021/06/05 08:04:10;;;;;;;2.78;1.25;;;;;;;27.80;57.87;98464.50;5070269;28;20305;-79
2021/06/05 08:06:37;;;;;;;1.77;1.13;;;;;;;27.37;59.63;98458.34;5074895;28;20232;-76
2021/06/05 08:09:05;;;;;;;2.25;0.90;;;;;;;27.28;60.37;98460.13;5071302;28;20205;-79
2021/06/05 08:11:31;;;;;;;3.65;1.20;;;;;;;28.12;57.35;98467.25;5062943;28;20202;-78
2021/06/05 08:13:58;;;;;;;1.63;1.00;;;;;;;28.02;60.64;98462.75;5069685;28;20200;-78
2021/06/05 08:16:27;;;;;;;1.52;1.30;;;;;;;27.93;60.94;98464.53;5062883;28;20320;-78
2021/06/05 08:18:54;;;;;;;1.30;1.10;;;;;;;28.49;59.73;98467.09;5065980;28;20971;-81
2021/06/05 08:21:21;;;;;;;1.88;1.05;;;;;;;28.10;59.71;98464.81;5067187;28;20232;-79
2021/06/05 08:23:49;;;;;;;3.45;1.10;;;;;;;27.95;61.97;98465.06;5073674;28;20212;-78
2021/06/05 08:26:18;;;;;;;3.90;1.52;;;;;;;28.09;60.88;98465.09;5058015;28;20716;-83
2021/06/05 08:28:45;;;;;;;2.47;1.13;;;;;;;26.17;68.21;98456.31;5063855;28;20214;-77
2021/06/05 08:31:14;;;;;;;1.40;1.13;;;;;;;26.76;65.96;98452.06;5058630;28;20207;-73
2021/06/05 08:33:42;;;;;;;2.37;1.10;;;;;;;27.68;63.15;98470.47;5064633;28;20203;-77
2021/06/05 08:36:10;;;;;;;3.60;1.20;;;;;;;27.38;65.53;98459.16;5063057;28;20224;-70
2021/06/05 08:38:38;;;;;;;1.47;0.90;;;;;;;27.51;67.82;98459.22;5069105;28;20232;-70
2021/06/05 08:41:08;;;;;;;2.57;1.13;;;;;;;27.92;64.87;98468.41;5071464;28;20276;-71
2021/06/05 08:43:38;;;;;;;2.80;0.93;;;;;;;28.29;64.64;98465.53;5064280;28;20214;-71
2021/06/05 08:46:07;;;;;;;3.67;1.13;;;;;;;26.80;71.15;98457.78;5067352;28;20230;-71
2021/06/05 08:48:34;;;;;;;3.13;1.00;;;;;;;27.37;70.35;98452.06;5059901;28;20200;-71
2021/06/05 08:51:12;;;;;;;3.40;1.40;;;;;;;27.85;66.11;98468.00;5059663;28;20200;-71
2021/06/05 08:53:40;;;;;;;1.20;1.10;;;;;;;27.72;67.44;98462.44;5059386;28;20297;-71
2021/06/05 08:56:10;;;;;;;1.77;1.17;;;;;;;26.54;72.98;98453.69;5067626;28;20319;-72
2021/06/05 08:58:39;;;;;;;2.80;1.13;;;;;;;26.37;75.76;98442.41;5059458;28;20203;-73
2021/06/05 09:01:11;;;;;;;3.30;1.20;;;;;;;26.22;76.22;98443.41;5059654;28;20222;-74
2021/06/05 09:03:39;;;;;;;1.10;0.80;;;;;;;28.38;64.51;98462.91;5067383;28;20210;-72
2021/06/05 09:06:10;;;;;;;1.77;1.30;;;;;;;28.57;64.21;98460.88;5069392;28;20281;-71
2021/06/05 09:08:37;;;;;;;1.40;1.10;;;;;;;28.43;63.25;98465.59;5055540;28;20252;-73
2021/06/05 09:11:05;;;;;;;2.43;1.20;;;;;;;28.28;63.62;98461.16;5067564;28;20283;-71
2021/06/05 09:13:33;;;;;;;3.40;1.30;;;;;;;27.18;71.52;98448.50;5065712;28;20293;-77
2021/06/05 09:16:23;;;;;;;3.43;1.50;;;;;;;26.57;73.29;98450.41;5061026;28;20231;-74
2021/06/05 09:18:52;;;;;;;2.20;1.40;;;;;;;27.34;69.89;98452.63;5070134;28;20240;-69
2021/06/05 09:21:28;;;;;;;2.40;1.07;;;;;;;26.98;69.90;98448.75;5072546;28;20238;-74
2021/06/05 09:24:12;;;;;;;3.20;1.33;;;;;;;26.00;75.38;98451.28;5065543;28;20211;-75
2021/06/05 09:26:39;;;;;;;1.20;1.10;;;;;;;27.59;68.55;98452.22;5068913;28;20289;-78
2021/06/05 09:29:11;;;;;;;1.30;1.10;;;;;;;27.58;67.16;98459.66;5065118;28;20712;-80
2021/06/05 09:31:52;;;;;;;1.17;1.07;;;;;;;27.60;66.80;98462.09;5073550;28;20213;-71
2021/06/05 09:34:19;;;;;;;2.50;1.20;;;;;;;26.93;69.82;98460.63;5061461;28;20244;-81
2021/06/05 09:36:48;;;;;;;3.60;1.10;;;;;;;27.64;67.47;98463.94;5073188;28;20228;-72
2021/06/05 09:39:17;;;;;;;2.57;1.20;;;;;;;27.47;67.43;98471.09;5071315;28;20212;-71
2021/06/05 09:41:46;;;;;;;3.53;1.30;;;;;;;27.44;68.54;98474.41;5060121;28;20228;-76
2021/06/05 09:44:20;;;;;;;1.73;1.30;;;;;;;27.19;70.20;98461.09;5072031;28;20240;-73
2021/06/05 09:46:56;;;;;;;2.60;1.17;;;;;;;28.03;68.01;98471.81;5069558;28;20283;-73
2021/06/05 09:49:30;;;;;;;3.77;1.10;;;;;;;28.02;68.14;98468.22;5072575;28;20191;-77
2021/06/05 09:52:21;;;;;;;4.47;1.13;;;;;;;27.54;71.59;98455.06;5063581;28;20202;-79
2021/06/05 09:54:50;;;;;;;2.03;1.13;;;;;;;27.76;70.70;98456.03;5064093;28;20282;-73
2021/06/05 09:57:24;;;;;;;1.10;1.00;;;;;;;28.03;66.63;98478.09;5064084;28;20200;-73
2021/06/05 10:00:11;;;;;;;1.10;1.00;;;;;;;27.06;75.03;98448.91;5065755;28;20216;-70
2021/06/05 10:02:39;;;;;;;3.33;1.13;;;;;;;28.95;64.94;98465.03;5067662;28;20286;-71
2021/06/05 10:05:11;;;;;;;3.57;1.10;;;;;;;29.13;62.42;98469.63;5060656;28;20725;-70
2021/06/05 10:07:39;;;;;;;2.67;1.23;;;;;;;27.86;69.87;98471.53;5065285;28;20254;-74
2021/06/05 10:10:20;;;;;;;7.67;2.13;;;;;;;27.68;70.24;98466.91;5074102;28;20201;-73
2021/06/05 10:12:47;;;;;;;1.30;1.13;;;;;;;27.64;69.79;98471.34;5069732;28;20212;-74
2021/06/05 10:15:17;;;;;;;2.23;1.10;;;;;;;29.54;60.65;98478.53;5063133;28;20598;-74
2021/06/05 10:17:52;;;;;;;1.40;1.03;;;;;;;28.82;65.88;98471.34;5072825;28;20237;-75
2021/06/05 10:20:34;;;;;;;1.80;1.30;;;;;;;28.37;66.43;98480.50;5058763;28;20758;-73
2021/06/05 10:23:02;;;;;;;1.58;0.90;;;;;;;29.63;60.51;98483.00;5067218;28;20207;-71
2021/06/05 10:25:32;;;;;;;1.73;1.13;;;;;;;28.91;67.35;98473.09;5059107;28;20229;-78
2021/06/05 10:28:04;;;;;;;1.42;1.08;;;;;;;29.76;61.70;98467.56;5068644;28;20200;-74
2021/06/05 10:30:38;;;;;;;1.98;1.10;;;;;;;29.64;60.63;98473.63;5066399;28;20205;-77
2021/06/05 10:33:08;;;;;;;1.10;1.00;;;;;;;29.24;62.05;98474.56;5075924;28;20211;-75
2021/06/05 10:35:39;;;;;;;2.50;1.20;;;;;;;28.77;66.89;98464.03;5070235;28;20225;-78
2021/06/05 10:38:10;;;;;;;5.05;1.50;;;;;;;28.49;68.38;98461.63;5063285;28;20202;-79
2021/06/05 10:40:38;;;;;;;2.38;1.25;;;;;;;28.47;70.55;98456.41;5067591;28;20230;-75
2021/06/05 10:43:06;;;;;;;3.08;1.20;;;;;;;29.01;68.38;98466.56;5070750;28;20209;-74
2021/06/05 10:45:35;;;;;;;2.38;1.02;;;;;;;28.42;73.16;98456.50;5072295;28;20597;-72
2021/06/05 10:48:06;;;;;;;1.02;0.93;;;;;;;28.17;75.75;98447.94;5071006;28;20254;-74
2021/06/05 10:50:35;;;;;;;3.33;1.33;;;;;;;28.40;72.29;98457.94;5068392;28;20201;-74
2021/06/05 10:53:09;;;;;;;1.97;1.10;;;;;;;28.57;72.08;98456.22;5070521;28;20205;-74
2021/06/05 10:55:42;;;;;;;2.90;1.10;;;;;;;28.33;74.10;98446.53;5069621;28;20232;-75
2021/06/05 10:58:24;;;;;;;1.90;0.97;;;;;;;27.64;78.33;98435.69;5066482;28;20209;-77
2021/06/05 11:00:53;;;;;;;1.00;0.90;;;;;;;27.97;79.43;98435.38;5070033;28;20224;-73
2021/06/05 11:03:56;;;;;;;1.37;1.20;;;;;;;29.03;71.24;98450.59;5071918;28;20207;-75
2021/06/05 11:06:26;;;;;;;1.57;1.20;;;;;;;28.19;75.53;98448.44;5071272;28;20230;-72
2021/06/05 11:08:57;;;;;;;1.33;1.17;;;;;;;29.29;69.89;98452.44;5070005;28;20687;-73
2021/06/05 11:11:45;;;;;;;1.30;1.00;;;;;;;29.34;65.29;98448.78;5063766;28;20219;-78
2021/06/05 11:14:41;;;;;;;2.37;1.10;;;;;;;28.96;67.81;98447.41;5072547;28;20216;-74
2021/06/05 11:17:29;;;;;;;2.70;1.30;;;;;;;28.14;75.13;98438.38;5072433;28;20204;-73
2021/06/05 11:20:39;;;;;;;2.25;1.27;;;;;;;29.33;70.05;98439.69;5068006;28;20253;-80
2021/06/05 11:23:26;;;;;;;2.25;1.02;;;;;;;30.35;63.12;98445.88;5071862;28;20287;-77
2021/06/05 11:25:56;;;;;;;2.45;1.33;;;;;;;30.65;61.80;98441.47;5063278;28;20226;-78
2021/06/05 11:28:45;;;;;;;1.23;0.70;;;;;;;30.21;57.63;98452.66;5060370;28;20297;-77
2021/06/05 11:31:35;;;;;;;4.88;1.40;;;;;;;31.05;58.14;98452.13;5062989;28;20198;-74
2021/06/05 11:34:03;;;;;;;3.78;1.30;;;;;;;29.67;64.23;98445.50;5065987;28;20216;-76
2021/06/05 11:36:39;;;;;;;1.40;0.90;;;;;;;28.22;74.67;98431.38;5059183;28;20312;-78
2021/06/05 11:39:08;;;;;;;4.28;1.02;;;;;;;29.56;63.82;98440.56;5073327;28;20209;-79
2021/06/05 11:41:47;;;;;;;2.22;1.30;;;;;;;30.27;59.62;98446.69;5070244;28;20237;-79
2021/06/05 11:44:33;;;;;;;2.65;1.20;;;;;;;31.39;57.07;98443.91;5066030;28;20293;-78
2021/06/05 11:47:09;;;;;;;1.95;1.30;;;;;;;32.16;50.80;98455.66;5071818;28;20251;-79